createdAt,value
2019-06-27T00:02:15.853Z,95707.39
2019-06-27T00:04:46.853Z,95705.20
2019-06-27T00:07:17.797Z,95707.55
2019-06-27T00:09:49.164Z,95711.01
2019-06-27T00:12:20.810Z,95714.19
2019-06-27T00:14:52.176Z,95715.01
2019-06-27T00:17:23.291Z,95719.48
2019-06-27T00:19:54.964Z,95722.45
2019-06-27T00:22:25.960Z,95712.08
2019-06-27T00:24:57.085Z,95712.08
2019-06-27T00:27:28.105Z,95715.56
2019-06-27T00:29:59.127Z,95712.56
2019-06-27T00:32:30.078Z,95711.75
2019-06-27T00:35:01.162Z,95706.42
2019-06-27T00:37:32.538Z,95706.42
2019-06-27T00:40:03.530Z,95706.14
2019-06-27T00:42:34.605Z,95704.28
2019-06-27T00:45:06.488Z,95704.38
2019-06-27T00:47:37.532Z,95707.67
2019-06-27T00:50:09.699Z,95706.42
2019-06-27T00:52:41.027Z,95700.92
2019-06-27T00:55:12.771Z,95706.52
2019-06-27T00:57:43.982Z,95700.84
2019-06-27T01:00:16.854Z,95700.92
2019-06-27T01:02:48.319Z,95704.36
2019-06-27T01:05:19.695Z,95705.10
2019-06-27T01:07:51.093Z,95700.25
2019-06-27T01:10:22.745Z,95699.44
2019-06-27T01:12:54.074Z,95696.56
2019-06-27T01:15:25.262Z,95696.67
2019-06-27T01:17:56.305Z,95695.04
2019-06-27T01:20:27.785Z,95687.19
2019-06-27T01:22:59.270Z,95693.30
2019-06-27T01:25:31.126Z,95691.16
2019-06-27T01:28:03.046Z,95688.14
2019-06-27T01:30:34.075Z,95685.48
2019-06-27T01:33:05.270Z,95691.59
2019-06-27T01:35:37.214Z,95687.45
2019-06-27T01:38:08.460Z,95680.16
2019-06-27T01:40:39.986Z,95674.73
2019-06-27T01:43:11.173Z,95684.64
2019-06-27T01:45:47.877Z,95679.82
2019-06-27T01:48:19.019Z,95680.39
2019-06-27T01:50:50.495Z,95679.48
2019-06-27T01:53:22.162Z,95675.61
2019-06-27T01:55:53.793Z,95677.88
2019-06-27T01:58:24.775Z,95675.17
2019-06-27T02:00:56.577Z,95678.30
2019-06-27T02:03:28.099Z,95668.55
2019-06-27T02:05:59.850Z,95670.56
2019-06-27T02:08:31.446Z,95667.78
2019-06-27T02:11:03.115Z,95668.80
2019-06-27T02:13:34.831Z,95673.91
2019-06-27T02:16:06.368Z,95672.67
2019-06-27T02:18:38.655Z,95667.19
2019-06-27T02:21:09.889Z,95671.39
2019-06-27T02:23:40.950Z,95667.75
2019-06-27T02:26:12.268Z,95651.16
2019-06-27T02:28:43.514Z,95663.03
2019-06-27T02:31:14.714Z,95660.94
2019-06-27T02:33:45.781Z,95656.02
2019-06-27T02:36:16.662Z,95660.55
2019-06-27T02:38:47.572Z,95668.44
2019-06-27T02:41:18.618Z,95665.59
2019-06-27T02:43:49.462Z,95666.55
2019-06-27T02:46:21.661Z,95663.25
2019-06-27T02:48:53.517Z,95667.22
2019-06-27T02:51:25.121Z,95669.19
2019-06-27T02:53:56.576Z,95664.52
2019-06-27T02:56:27.595Z,95667.78
2019-06-27T02:58:59.076Z,95671.63
2019-06-27T03:01:30.250Z,95672.51
2019-06-27T03:04:02.260Z,95668.85
2019-06-27T03:06:33.468Z,95664.63
2019-06-27T03:09:05.467Z,95661.88
2019-06-27T03:11:36.684Z,95664.52
2019-06-27T03:14:07.787Z,95665.64
2019-06-27T03:16:39.105Z,95663.66
2019-06-27T03:19:10.422Z,95662.44
2019-06-27T03:21:41.738Z,95665.95
2019-06-27T03:24:12.868Z,95669.41
2019-06-27T03:26:44.143Z,95664.33
2019-06-27T03:29:19.909Z,95666.86
2019-06-27T03:31:48.073Z,95662.95
2019-06-27T03:34:19.286Z,95662.50
2019-06-27T03:36:50.512Z,95665.28
2019-06-27T03:39:21.679Z,95661.31
2019-06-27T03:41:53.429Z,95667.52
2019-06-27T03:44:24.614Z,95663.72
2019-06-27T03:46:55.746Z,95665.47
2019-06-27T03:49:26.732Z,95668.23
2019-06-27T03:51:57.985Z,95666.94
2019-06-27T03:54:29.106Z,95668.20
2019-06-27T03:57:00.187Z,95666.85
2019-06-27T03:59:31.423Z,95666.63
2019-06-27T04:02:02.446Z,95666.53
2019-06-27T04:04:33.642Z,95666.73
2019-06-27T04:07:04.963Z,95664.48
2019-06-27T04:09:36.189Z,95663.05
2019-06-27T04:12:07.339Z,95668.20
2019-06-27T04:14:38.280Z,95667.27
2019-06-27T04:17:09.847Z,95665.06
2019-06-27T04:19:41.117Z,95663.94
2019-06-27T04:22:17.110Z,95658.67
2019-06-27T04:24:45.339Z,95658.30
2019-06-27T04:27:16.602Z,95662.34
2019-06-27T04:29:47.946Z,95655.51
2019-06-27T04:32:19.207Z,95659.21
2019-06-27T04:34:50.041Z,95653.66
2019-06-27T04:37:21.186Z,95651.31
2019-06-27T04:39:52.041Z,95652.94
2019-06-27T04:42:23.057Z,95652.67
2019-06-27T04:44:54.442Z,95654.95
2019-06-27T04:47:25.805Z,95646.56
2019-06-27T04:49:56.735Z,95648.67
2019-06-27T04:52:28.170Z,95644.12
2019-06-27T04:55:03.153Z,95643.98
2019-06-27T04:57:32.546Z,95647.91
2019-06-27T05:00:03.981Z,95641.66
2019-06-27T05:02:35.432Z,95650.23
2019-06-27T05:05:06.918Z,95652.66
2019-06-27T05:07:39.339Z,95648.52
2019-06-27T05:10:10.581Z,95652.73
2019-06-27T05:12:41.925Z,95639.78
2019-06-27T05:15:13.135Z,95639.78
2019-06-27T05:17:44.271Z,95645.77
2019-06-27T05:20:15.465Z,95648.11
2019-06-27T05:22:46.691Z,95646.02
2019-06-27T05:25:17.994Z,95642.34
2019-06-27T05:27:49.461Z,95639.33
2019-06-27T05:30:20.632Z,95644.53
2019-06-27T05:32:51.936Z,95646.02
2019-06-27T05:35:23.379Z,95637.10
2019-06-27T05:37:54.852Z,95637.31
2019-06-27T05:40:26.222Z,95628.78
2019-06-27T05:42:57.269Z,95624.81
2019-06-27T05:45:28.528Z,95629.79
2019-06-27T05:47:59.650Z,95633.40
2019-06-27T05:50:30.849Z,95531.80
2019-06-27T05:53:02.149Z,95621.95
2019-06-27T05:55:33.332Z,95624.53
2019-06-27T05:58:05.398Z,95619.81
2019-06-27T06:00:36.576Z,95616.68
2019-06-27T06:03:07.993Z,95626.13
2019-06-27T06:05:39.073Z,95626.97
2019-06-27T06:08:10.199Z,95615.91
2019-06-27T06:10:41.531Z,95617.30
2019-06-27T06:13:12.687Z,95611.89
2019-06-27T06:15:43.830Z,95611.18
2019-06-27T06:18:15.399Z,95607.97
2019-06-27T06:20:46.597Z,95604.19
2019-06-27T06:23:18.084Z,95602.09
2019-06-27T06:25:49.172Z,95603.66
2019-06-27T06:28:20.328Z,95605.13
2019-06-27T06:30:51.503Z,95598.89
2019-06-27T06:33:22.554Z,95597.55
2019-06-27T06:35:53.603Z,95601.10
2019-06-27T06:38:25.012Z,95594.71
2019-06-27T06:40:56.288Z,95590.48
2019-06-27T06:43:27.527Z,95589.64
2019-06-27T06:45:58.429Z,95589.78
2019-06-27T06:48:29.799Z,95587.55
2019-06-27T06:51:00.981Z,95589.86
2019-06-27T06:53:32.454Z,95584.57
2019-06-27T06:56:03.638Z,95582.20
2019-06-27T06:58:34.936Z,95588.59
2019-06-27T07:01:05.953Z,95584.53
2019-06-27T07:03:36.959Z,95578.56
2019-06-27T07:06:08.083Z,95574.70
2019-06-27T07:08:39.195Z,95580.50
2019-06-27T07:11:11.446Z,95569.24
2019-06-27T07:13:42.617Z,95573.99
2019-06-27T07:16:13.518Z,95570.95
2019-06-27T07:18:44.759Z,95564.87
2019-06-27T07:21:16.016Z,95555.94
2019-06-27T07:23:47.421Z,95554.95
2019-06-27T07:26:22.067Z,95552.80
2019-06-27T07:28:51.948Z,95556.68
2019-06-27T07:31:23.523Z,95553.10
2019-06-27T07:33:55.012Z,95545.25
2019-06-27T07:36:26.608Z,95544.73
2019-06-27T07:38:57.958Z,95541.17
2019-06-27T07:41:29.776Z,95542.53
2019-06-27T07:44:01.331Z,95535.28
2019-06-27T07:46:32.707Z,95535.02
2019-06-27T07:49:04.394Z,95532.81
2019-06-27T07:51:36.357Z,95532.06
2019-06-27T07:54:08.117Z,95522.58
2019-06-27T07:56:39.344Z,95529.00
2019-06-27T07:59:10.957Z,95521.24
2019-06-27T08:01:42.466Z,95518.00
2019-06-27T08:04:13.603Z,95510.90
2019-06-27T08:06:44.525Z,95509.92
2019-06-27T08:09:15.604Z,95512.35
2019-06-27T08:11:47.016Z,95514.76
2019-06-27T08:14:18.171Z,95503.17
2019-06-27T08:16:49.740Z,95504.60
2019-06-27T08:19:21.367Z,95503.53
2019-06-27T08:21:52.541Z,95498.75
2019-06-27T08:24:24.316Z,95495.30
2019-06-27T08:26:55.540Z,95494.49
2019-06-27T08:29:26.629Z,95493.64
2019-06-27T08:31:57.745Z,95487.19
2019-06-27T08:34:28.888Z,95483.29
2019-06-27T08:37:00.100Z,95478.52
2019-06-27T08:39:31.504Z,95478.20
2019-06-27T08:42:02.411Z,95471.84
2019-06-27T08:44:33.567Z,95464.70
2019-06-27T08:47:04.544Z,95470.05
2019-06-27T08:49:36.192Z,95458.68
2019-06-27T08:52:07.657Z,95464.68
2019-06-27T08:54:38.901Z,95458.50
2019-06-27T08:57:10.045Z,95454.66
2019-06-27T08:59:41.061Z,95452.88
2019-06-27T09:02:11.967Z,95455.56
2019-06-27T09:04:43.502Z,95449.08
2019-06-27T09:07:14.763Z,95455.28
2019-06-27T09:09:45.832Z,95446.61
2019-06-27T09:12:17.166Z,95439.66
2019-06-27T09:14:48.390Z,95440.28
2019-06-27T09:17:19.390Z,95435.93
2019-06-27T09:19:50.328Z,95432.69
2019-06-27T09:22:21.454Z,95429.01
2019-06-27T09:24:52.836Z,95433.43
2019-06-27T09:27:23.892Z,95420.92
2019-06-27T09:29:54.884Z,95417.80
2019-06-27T09:32:26.529Z,95418.84
2019-06-27T09:34:57.595Z,95406.07
2019-06-27T09:37:29.960Z,95410.19
2019-06-27T09:40:01.300Z,95413.58
2019-06-27T09:42:32.363Z,95402.69
2019-06-27T09:45:03.869Z,95402.76
2019-06-27T09:47:34.856Z,95395.84
2019-06-27T09:50:06.183Z,95393.92
2019-06-27T09:52:37.101Z,95396.16
2019-06-27T09:55:09.565Z,95398.35
2019-06-27T09:57:40.653Z,95395.56
2019-06-27T10:00:12.803Z,95388.42
2019-06-27T10:02:43.698Z,95382.52
2019-06-27T10:05:15.363Z,95380.20
2019-06-27T10:07:46.317Z,95374.45
2019-06-27T10:10:17.799Z,95371.94
2019-06-27T10:12:48.919Z,95369.47
2019-06-27T10:15:20.446Z,95364.62
2019-06-27T10:17:51.730Z,95359.61
2019-06-27T10:20:23.071Z,95364.65
2019-06-27T10:22:54.337Z,95359.45
2019-06-27T10:25:25.896Z,95351.85
2019-06-27T10:27:57.005Z,95355.12
2019-06-27T10:30:28.289Z,95349.63
2019-06-27T10:33:00.504Z,95342.30
2019-06-27T10:35:32.029Z,95345.98
2019-06-27T10:38:03.212Z,95341.59
2019-06-27T10:40:34.635Z,95337.62
2019-06-27T10:43:05.754Z,95337.25
2019-06-27T10:45:36.964Z,95330.36
2019-06-27T10:48:07.904Z,95326.36
2019-06-27T10:50:39.100Z,95327.77
2019-06-27T10:53:10.413Z,95321.90
2019-06-27T10:55:42.107Z,95315.91
2019-06-27T10:58:13.236Z,95312.86
2019-06-27T11:00:44.457Z,95312.95
2019-06-27T11:03:16.536Z,95307.24
2019-06-27T11:05:48.037Z,95303.38
2019-06-27T11:08:19.482Z,95297.02
2019-06-27T11:10:50.948Z,95291.59
2019-06-27T11:13:23.122Z,95289.19
2019-06-27T11:15:54.690Z,95283.76
2019-06-27T11:18:25.802Z,95281.05
2019-06-27T11:20:56.929Z,95283.42
2019-06-27T11:23:27.966Z,95275.75
2019-06-27T11:25:58.998Z,95270.97
2019-06-27T11:28:30.229Z,95280.06
2019-06-27T11:31:01.357Z,95269.37
2019-06-27T11:33:33.320Z,95267.80
2019-06-27T11:36:04.549Z,95255.06
2019-06-27T11:38:35.862Z,95261.13
2019-06-27T11:41:07.455Z,95261.34
2019-06-27T11:43:38.922Z,95248.28
2019-06-27T11:46:10.263Z,95254.77
2019-06-27T11:48:41.238Z,95252.17
2019-06-27T11:51:12.701Z,95242.89
2019-06-27T11:53:44.370Z,95240.20
2019-06-27T11:56:16.160Z,95245.02
2019-06-27T11:58:47.547Z,95241.28
2019-06-27T12:01:19.379Z,95234.95
2019-06-27T12:03:50.991Z,95228.64
2019-06-27T12:06:22.425Z,95227.52
2019-06-27T12:08:53.408Z,95225.49
2019-06-27T12:11:24.412Z,95209.80
2019-06-27T12:13:55.667Z,95218.63
2019-06-27T12:16:27.114Z,95221.25
2019-06-27T12:18:58.443Z,95219.01
2019-06-27T12:21:29.525Z,95209.47
2019-06-27T12:24:00.748Z,95205.86
2019-06-27T12:26:32.318Z,95205.64
2019-06-27T12:29:03.765Z,95197.81
2019-06-27T12:31:35.190Z,95198.11
2019-06-27T12:34:07.721Z,95198.82
2019-06-27T12:36:39.980Z,95196.12
2019-06-27T12:39:11.125Z,95194.74
2019-06-27T12:41:42.338Z,95191.83
2019-06-27T12:44:13.496Z,95189.39
2019-06-27T12:46:44.938Z,95182.64
2019-06-27T12:49:16.144Z,95181.84
2019-06-27T12:51:48.688Z,95177.70
2019-06-27T12:54:20.127Z,95175.80
2019-06-27T12:56:51.589Z,95177.63
2019-06-27T12:59:22.990Z,95170.35
2019-06-27T13:01:55.269Z,95170.80
2019-06-27T13:04:26.459Z,95166.77
2019-06-27T13:06:58.660Z,95157.68
2019-06-27T13:09:29.753Z,95158.96
2019-06-27T13:12:00.916Z,95147.05
2019-06-27T13:14:31.831Z,95153.81
2019-06-27T13:17:03.305Z,95145.50
2019-06-27T13:19:34.731Z,95138.13
2019-06-27T13:22:05.778Z,95138.11
2019-06-27T13:24:36.933Z,95128.32
2019-06-27T13:27:08.150Z,95127.07
2019-06-27T13:29:39.598Z,95125.17
2019-06-27T13:32:10.891Z,95117.75
2019-06-27T13:34:43.664Z,95116.70
2019-06-27T13:37:14.761Z,95111.03
2019-06-27T13:39:45.850Z,95110.22
2019-06-27T13:42:16.879Z,95104.29
2019-06-27T13:44:47.896Z,95107.89
2019-06-27T13:47:20.328Z,95097.52
2019-06-27T13:49:51.281Z,95103.98
2019-06-27T13:52:22.323Z,95100.74
2019-06-27T13:54:53.281Z,95089.70
2019-06-27T13:57:24.399Z,95089.94
2019-06-27T13:59:55.460Z,95081.81
2019-06-27T14:02:26.437Z,95080.42
2019-06-27T14:04:58.031Z,95076.03
2019-06-27T14:07:29.153Z,95076.58
2019-06-27T14:10:00.168Z,95070.73
2019-06-27T14:12:31.805Z,95068.84
2019-06-27T14:15:02.665Z,95058.05
2019-06-27T14:17:33.903Z,95061.52
2019-06-27T14:20:05.439Z,95051.48
2019-06-27T14:22:37.109Z,95049.30
2019-06-27T14:25:08.175Z,95049.77
2019-06-27T14:27:39.210Z,95041.69
2019-06-27T14:30:10.763Z,95036.95
2019-06-27T14:32:42.047Z,95029.64
2019-06-27T14:35:15.727Z,95028.88
2019-06-27T14:37:50.352Z,95023.81
2019-06-27T14:40:21.578Z,95022.30
2019-06-27T14:42:52.629Z,95020.70
2019-06-27T14:45:25.057Z,95016.31
2019-06-27T14:47:56.601Z,95009.38
2019-06-27T14:50:28.291Z,95010.38
2019-06-27T14:53:00.149Z,95003.29
2019-06-27T14:55:31.717Z,95006.78
2019-06-27T14:58:03.033Z,95006.19
2019-06-27T15:00:34.262Z,95002.20
2019-06-27T15:03:05.429Z,94995.71
2019-06-27T15:05:36.463Z,94986.28
2019-06-27T15:08:07.584Z,94989.02
2019-06-27T15:10:38.456Z,94984.90
2019-06-27T15:13:09.759Z,94983.77
2019-06-27T15:15:40.983Z,94981.88
2019-06-27T15:18:12.214Z,94975.39
2019-06-27T15:20:43.311Z,94981.58
2019-06-27T15:23:14.569Z,94970.55
2019-06-27T15:25:45.448Z,94973.02
2019-06-27T15:28:16.505Z,94969.23
2019-06-27T15:30:47.840Z,94973.75
2019-06-27T15:33:19.104Z,94966.42
2019-06-27T15:35:52.260Z,94963.22
2019-06-27T15:38:23.106Z,94962.67
2019-06-27T15:40:55.559Z,94965.16
2019-06-27T15:43:27.260Z,94961.88
2019-06-27T15:45:58.288Z,94967.56
2019-06-27T15:48:29.238Z,94960.23
2019-06-27T15:51:00.511Z,94959.94
2019-06-27T15:53:31.781Z,94951.05
2019-06-27T15:56:02.686Z,94943.81
2019-06-27T15:58:33.954Z,94946.09
2019-06-27T16:01:05.038Z,94947.98
2019-06-27T16:03:36.319Z,94952.86
2019-06-27T16:06:09.710Z,94951.30
2019-06-27T16:08:40.410Z,94952.36
2019-06-27T16:11:13.971Z,94956.73
2019-06-27T16:13:45.191Z,94954.27
2019-06-27T16:16:16.117Z,94946.84
2019-06-27T16:18:47.351Z,94956.88
2019-06-27T16:21:18.694Z,94953.61
2019-06-27T16:23:50.189Z,94948.30
2019-06-27T16:26:21.187Z,94952.37
2019-06-27T16:28:54.295Z,94952.37
2019-06-27T16:31:25.513Z,94942.14
2019-06-27T16:33:56.843Z,94946.02
2019-06-27T16:36:29.268Z,94950.31
2019-06-27T16:39:00.456Z,94947.94
2019-06-27T16:41:33.108Z,94952.80
2019-06-27T16:44:04.699Z,94950.11
2019-06-27T16:46:35.845Z,94949.56
2019-06-27T16:49:07.155Z,94944.52
2019-06-27T16:51:38.443Z,94948.25
2019-06-27T16:54:09.657Z,94953.34
2019-06-27T16:56:40.971Z,94950.94
2019-06-27T16:59:12.544Z,94954.97
2019-06-27T17:01:43.621Z,94949.88
2019-06-27T17:04:14.674Z,94949.91
2019-06-27T17:06:45.913Z,94949.39
2019-06-27T17:09:17.258Z,94941.05
2019-06-27T17:11:48.474Z,94939.57
2019-06-27T17:14:19.849Z,94940.89
2019-06-27T17:16:51.068Z,94938.20
2019-06-27T17:19:22.266Z,94939.28
2019-06-27T17:21:53.376Z,94940.93
2019-06-27T17:24:24.376Z,94940.98
2019-06-27T17:26:55.553Z,94938.27
2019-06-27T17:29:26.883Z,94938.55
2019-06-27T17:31:57.957Z,94934.80
2019-06-27T17:34:28.822Z,94934.84
2019-06-27T17:36:59.741Z,94935.67
2019-06-27T17:39:30.934Z,94933.78
2019-06-27T17:42:01.851Z,94934.34
2019-06-27T17:44:32.803Z,94938.33
2019-06-27T17:47:03.720Z,94933.78
2019-06-27T17:49:34.820Z,94938.07
2019-06-27T17:52:06.098Z,94944.25
2019-06-27T17:54:38.540Z,94943.99
2019-06-27T17:57:09.753Z,94941.05
2019-06-27T17:59:41.310Z,94939.98
2019-06-27T18:02:12.455Z,94949.13
2019-06-27T18:04:46.107Z,94956.91
2019-06-27T18:07:17.545Z,94968.18
2019-06-27T18:09:49.256Z,94972.16
2019-06-27T18:12:21.934Z,94976.98
2019-06-27T18:14:53.324Z,94974.28
2019-06-27T18:17:32.857Z,94971.59
2019-06-27T18:19:57.540Z,94960.86
2019-06-27T18:22:28.568Z,94960.26
2019-06-27T18:24:59.817Z,94965.80
2019-06-27T18:27:31.005Z,94961.52
2019-06-27T18:30:02.019Z,94967.61
2019-06-27T18:32:34.039Z,94962.77
2019-06-27T18:35:05.667Z,94974.50
2019-06-27T18:37:36.845Z,94976.29
2019-06-27T18:40:08.283Z,94979.23
2019-06-27T18:42:39.307Z,94980.84
2019-06-27T18:45:10.631Z,94982.32
2019-06-27T18:47:41.610Z,94985.53
2019-06-27T18:50:12.927Z,94995.14
2019-06-27T18:52:43.835Z,94993.98
2019-06-27T18:55:15.112Z,95006.00
2019-06-27T18:57:46.093Z,95008.41
2019-06-27T19:00:17.726Z,95016.13
2019-06-27T19:02:49.187Z,95016.57
2019-06-27T19:05:20.253Z,95002.28
2019-06-27T19:07:51.456Z,95014.10
2019-06-27T19:10:23.036Z,95018.47
2019-06-27T19:12:54.269Z,95023.34
2019-06-27T19:15:25.234Z,95025.06
2019-06-27T19:17:56.119Z,95027.99
2019-06-27T19:20:41.748Z,95038.25
2019-06-27T19:23:49.741Z,95036.91
2019-06-27T19:26:20.842Z,95036.16
2019-06-27T19:28:51.880Z,95045.74
2019-06-27T19:31:22.938Z,95037.69
2019-06-27T19:33:54.135Z,95047.39
2019-06-27T19:36:25.076Z,95049.98
2019-06-27T19:38:57.201Z,95049.56
2019-06-27T19:41:28.293Z,95058.66
2019-06-27T19:43:59.531Z,95046.66
2019-06-27T19:46:30.965Z,95049.60
2019-06-27T19:49:02.098Z,95060.73
2019-06-27T19:51:33.503Z,95062.59
2019-06-27T19:54:04.836Z,95055.36
2019-06-27T19:56:36.455Z,95055.72
2019-06-27T19:59:07.635Z,95047.74
2019-06-27T20:01:38.894Z,95046.52
2019-06-27T20:04:10.235Z,95042.30
2019-06-27T20:06:41.136Z,95044.45
2019-06-27T20:09:12.146Z,95052.55
2019-06-27T20:11:43.225Z,95055.64
2019-06-27T20:14:14.385Z,95057.38
2019-06-27T20:16:45.426Z,95057.19
2019-06-27T20:19:16.730Z,95057.19
2019-06-27T20:21:47.977Z,95055.30
2019-06-27T20:24:21.756Z,95058.73
2019-06-27T20:26:51.792Z,95053.31
2019-06-27T20:29:22.873Z,95053.59
2019-06-27T20:31:56.282Z,95049.09
2019-06-27T20:34:27.377Z,95047.27
2019-06-27T20:36:58.599Z,95047.08
2019-06-27T20:39:29.712Z,95043.08
2019-06-27T20:42:00.785Z,95049.34
2019-06-27T20:44:31.796Z,95047.48
2019-06-27T20:47:02.876Z,95035.58
2019-06-27T20:49:33.754Z,95033.65
2019-06-27T20:52:05.131Z,95037.06
2019-06-27T20:54:36.024Z,95037.16
2019-06-27T20:57:07.355Z,95049.86
2019-06-27T20:59:38.495Z,95054.48
2019-06-27T21:02:09.743Z,95062.12
2019-06-27T21:04:41.787Z,95064.72
2019-06-27T21:07:12.685Z,95069.77
2019-06-27T21:09:43.802Z,95062.39
2019-06-27T21:12:15.196Z,95073.59
2019-06-27T21:14:46.279Z,95075.66
2019-06-27T21:17:17.495Z,95087.38
2019-06-27T21:19:48.639Z,95093.84
2019-06-27T21:22:19.676Z,95086.66
2019-06-27T21:24:51.694Z,95087.57
2019-06-27T21:27:22.803Z,95083.64
2019-06-27T21:29:53.768Z,95083.96
2019-06-27T21:32:31.490Z,95085.64
2019-06-27T21:34:57.620Z,95089.16
2019-06-27T21:37:28.650Z,95085.82
2019-06-27T21:39:59.586Z,95074.25
2019-06-27T21:42:30.834Z,95065.91
2019-06-27T21:45:02.109Z,95074.98
2019-06-27T21:47:34.266Z,95076.77
2019-06-27T21:50:05.407Z,95076.63
2019-06-27T21:52:36.380Z,95068.05
2019-06-27T21:55:07.688Z,95069.16
2019-06-27T21:57:38.863Z,95080.13
2019-06-27T22:00:10.444Z,95086.52
2019-06-27T22:02:43.482Z,95088.72
2019-06-27T22:05:15.496Z,95085.14
2019-06-27T22:07:46.757Z,95079.53
2019-06-27T22:10:18.047Z,95082.69
2019-06-27T22:12:49.676Z,95084.79
2019-06-27T22:15:20.880Z,95082.50
2019-06-27T22:17:52.572Z,95076.83
2019-06-27T22:20:24.009Z,95075.51
2019-06-27T22:22:55.682Z,95070.75
2019-06-27T22:25:39.896Z,95070.75
2019-06-27T22:28:00.234Z,95062.81
2019-06-27T22:30:31.507Z,95062.89
2019-06-27T22:33:02.926Z,95058.27
2019-06-27T22:35:34.192Z,95062.41
2019-06-27T22:38:22.927Z,95054.66
2019-06-27T22:41:11.272Z,95049.25
2019-06-27T22:44:00.111Z,95044.28
2019-06-27T22:46:48.891Z,95039.53
2019-06-27T22:49:18.919Z,95034.34
2019-06-27T22:52:27.353Z,95043.36
2019-06-27T22:55:00.199Z,95026.08
2019-06-27T22:57:31.589Z,95013.65
2019-06-27T23:00:03.606Z,95009.67
2019-06-27T23:02:36.152Z,95009.83
2019-06-27T23:05:07.754Z,95002.55
2019-06-27T23:07:38.588Z,94994.73
2019-06-27T23:10:09.808Z,94991.86
2019-06-27T23:12:40.930Z,94988.45
2019-06-27T23:15:12.108Z,94978.69
2019-06-27T23:17:43.997Z,94981.34
2019-06-27T23:20:15.469Z,94974.22
2019-06-27T23:22:46.677Z,94977.92
2019-06-27T23:25:17.802Z,94979.61
2019-06-27T23:27:48.950Z,94982.91
2019-06-27T23:30:20.528Z,94975.78
2019-06-27T23:32:51.730Z,94981.62
2019-06-27T23:35:23.064Z,94980.58
2019-06-27T23:37:53.946Z,94980.58
2019-06-27T23:40:24.964Z,94983.85
2019-06-27T23:42:56.053Z,94976.83
2019-06-27T23:45:27.179Z,94974.45
2019-06-27T23:47:59.065Z,94967.51
2019-06-27T23:50:30.246Z,94951.93
2019-06-27T23:53:02.366Z,94940.05
2019-06-27T23:55:33.516Z,94934.77
2019-06-27T23:58:04.691Z,94912.52
